COOK1: Arkansas River Nr Coolidge, KS

                                SHEF ID:       COOK1     ARKANSAS R NR COOLIDGE, KS
STATION TYPE:
Regulating: Stage = 8.00, Flow = 2028

PRECIP STAGE STAGE(2) RIV-FLOW WTR-TEMP CONDUCT BAT-LOAD
in ft ft cfs F umho/cm volt
Ccp-Rev Ccp-Rev Ccp-Rev Ccp-Rev Ccp-Rev Ccp-Rev Ccp-Rev
(America/Chicago)
08/13 00:00 0.00 3.45 3.42 151 76.57 4991 12.83
08/13 01:00 0.01 3.42 3.41 147 75.85 5004 12.77
08/13 02:00 0.00 3.41 3.39 145 75.16 5024 12.77
08/13 03:00 0.00 3.39 3.39 142 74.44 5017 12.77
08/13 04:00 0.00 3.39 3.40 142 73.76 4932 12.77
08/13 05:00 0.00 3.39 3.37 142 73.06 4990 12.77
08/13 06:00 0.00 3.37 3.37 139 72.45 5168 12.77
08/13 07:00 0.00 3.39 3.36 142 71.92 4756 12.71
08/13 08:00 0.00 3.36 3.37 138 71.47 5164 12.71
08/13 09:00 0.00 3.37 3.36 139 71.19 5245 12.83
08/13 10:00 0.00 3.37 3.36 139 71.35 5256 13.12
08/13 11:00 0.00 3.38 3.37 141 72.27 5272 13.42
08/13 12:00 0.00 3.38 3.37 141 73.98 5297 13.65
08/13 13:00 0.00 3.40 3.37 144 76.23 5344 13.77
08/13 14:00 0.00 3.38 3.38 141 78.49 5380 13.83
08/13 15:00 0.00 3.38 3.38 141 80.51 5400 13.83
08/13 16:00 0.00 3.38 3.36 141 82.00 5400 13.83
08/13 17:00 0.00 3.37 3.38 139 81.91 5400 13.59
08/13 18:00 0.00 3.35 3.36 136 81.39 5398 13.30
08/13 19:00 0.00 3.38 3.37 141 80.74 5398 13.36
08/13 20:00 0.00 3.36 3.35 138 80.13 5413 13.18
08/13 21:00 0.00 3.35 3.33 136 79.43 5445 13.07
08/13 22:00 0.00 3.35 3.34 136 78.48 5472 13.07
08/13 23:00 ---- ---- ---- ---- ---- ---- ----
Data processed at Wed 14Aug2024 04:30 GMT

Parsing this webpage?

Checkout our new Data API! CWMSDataAPI (CDA)

Timeseries IDs (TSIDs)

TSIDs used from left to right in the data table
COOL.Precip-Inc.Total.1Hour.1Hour.Ccp-Rev
COOL.Stage.Inst.1Hour.0.Ccp-Rev
COOL.Stage-Alt.Inst.1Hour.0.Ccp-Rev
COOL.Flow.Inst.1Hour.0.Ccp-Rev
COOL.Temp-Water.Inst.1Hour.0.Ccp-Rev
COOL.Cond.Inst.1Hour.0.Ccp-Rev
COOL.Volt-Battery Load.Inst.1Hour.0.Ccp-Rev

                            

All information presented herein is the property of the government of the United States of America and may be revised or deleted at any time without prior notice. Dissemination of this information without the expressed written consent of the Public Affairs Office, Tulsa District U.S. Army Corps of Engineers is strictly prohibited. These data are gathered electronically and, as presented, have NOT undergone any form of quality control. These data are NOT guaranteed to be valid or correct.